createdAt,value
2018-11-26T00:00:47.556Z,1.40
2018-11-26T00:12:09.698Z,1.23
2018-11-26T00:15:04.844Z,1.10
2018-11-26T00:18:50.506Z,1.20
2018-11-26T00:21:55.483Z,1.30
2018-11-26T00:25:05.351Z,1.33
2018-11-26T00:27:54.923Z,1.17
2018-11-26T00:30:52.829Z,1.13
2018-11-26T00:47:47.972Z,1.10
2018-11-26T00:50:30.583Z,1.40
2018-11-26T00:54:09.952Z,1.03
2018-11-26T00:57:00.368Z,1.20
2018-11-26T01:02:36.125Z,1.10
2018-11-26T01:13:42.532Z,1.00
2018-11-26T01:16:18.795Z,1.30
2018-11-26T01:18:57.745Z,0.90
2018-11-26T01:21:31.956Z,0.73
2018-11-26T01:24:05.897Z,1.10
2018-11-26T01:26:40.108Z,0.80
2018-11-26T01:29:13.997Z,0.97
2018-11-26T01:31:52.818Z,1.07
2018-11-26T01:34:27.050Z,0.70
2018-11-26T01:37:01.027Z,0.80
2018-11-26T01:39:35.582Z,0.90
2018-11-26T01:42:09.529Z,0.80
2018-11-26T01:44:43.552Z,0.70
2018-11-26T01:47:17.653Z,0.90
2018-11-26T01:49:55.142Z,0.60
2018-11-26T01:52:29.972Z,0.60
2018-11-26T01:55:04.146Z,0.50
2018-11-26T01:57:43.010Z,0.77
2018-11-26T02:00:20.032Z,0.80
2018-11-26T02:02:55.839Z,0.80
2018-11-26T02:08:16.864Z,0.70
2018-11-26T02:10:53.208Z,0.77
2018-11-26T02:13:27.106Z,0.70
2018-11-26T02:16:01.422Z,0.83
2018-11-26T02:18:38.528Z,0.57
2018-11-26T02:21:12.899Z,0.70
2018-11-26T02:23:47.101Z,0.70
2018-11-26T02:26:21.182Z,0.70
2018-11-26T02:28:55.941Z,0.77
2018-11-26T02:31:31.174Z,0.70
2018-11-26T02:34:07.528Z,0.73
2018-11-26T02:36:41.986Z,0.63
2018-11-26T02:39:18.673Z,0.70
2018-11-26T02:41:52.654Z,0.60
2018-11-26T02:44:26.652Z,0.70
2018-11-26T02:47:02.946Z,0.80
2018-11-26T02:49:37.817Z,0.60
2018-11-26T02:52:11.566Z,0.77
2018-11-26T02:54:46.006Z,0.83
2018-11-26T02:57:19.748Z,0.60
2018-11-26T02:59:53.832Z,0.80
2018-11-26T03:02:28.549Z,0.63
2018-11-26T03:05:14.674Z,0.50
2018-11-26T03:07:48.487Z,0.63
2018-11-26T03:10:22.876Z,0.63
2018-11-26T03:12:56.837Z,0.60
2018-11-26T03:15:35.958Z,0.43
2018-11-26T03:18:10.018Z,0.80
2018-11-26T03:20:50.221Z,0.60
2018-11-26T03:23:29.913Z,0.60
2018-11-26T03:28:50.470Z,0.60
2018-11-26T03:31:24.329Z,0.63
2018-11-26T03:33:58.126Z,0.60
2018-11-26T03:36:32.812Z,0.60
2018-11-26T03:39:14.400Z,0.53
2018-11-26T03:41:48.594Z,0.57
2018-11-26T03:44:26.215Z,0.70
2018-11-26T03:47:00.147Z,0.73
2018-11-26T03:49:34.537Z,0.40
2018-11-26T03:52:10.560Z,0.50
2018-11-26T03:54:47.885Z,0.63
2018-11-26T03:57:21.794Z,0.43
2018-11-26T03:59:56.789Z,0.43
2018-11-26T04:02:31.721Z,0.70
2018-11-26T04:07:46.642Z,0.33
2018-11-26T04:10:20.965Z,0.30
2018-11-26T04:12:55.295Z,0.50
2018-11-26T04:15:29.179Z,0.60
2018-11-26T04:18:03.100Z,0.50
2018-11-26T04:20:38.143Z,0.30
2018-11-26T04:23:12.328Z,0.60
2018-11-26T04:25:46.320Z,0.50
2018-11-26T04:28:20.094Z,0.40
2018-11-26T04:30:53.881Z,0.50
2018-11-26T04:33:29.154Z,0.60
2018-11-26T04:36:05.984Z,0.50
2018-11-26T04:38:42.474Z,0.47
2018-11-26T04:41:16.791Z,0.40
2018-11-26T04:46:40.152Z,0.30
2018-11-26T04:49:17.662Z,0.50
2018-11-26T04:51:55.983Z,0.50
2018-11-26T04:54:30.903Z,0.40
2018-11-26T04:57:28.793Z,0.60
2018-11-26T05:02:59.951Z,0.57
2018-11-26T05:10:08.483Z,0.40
2018-11-26T05:12:43.750Z,0.50
2018-11-26T05:15:17.716Z,0.33
2018-11-26T05:17:51.639Z,0.40
2018-11-26T05:20:26.435Z,0.33
2018-11-26T05:23:01.280Z,0.40
2018-11-26T05:25:35.793Z,0.43
2018-11-26T05:28:09.631Z,0.40
2018-11-26T05:30:49.409Z,0.50
2018-11-26T05:33:25.130Z,0.40
2018-11-26T05:36:00.242Z,0.50
2018-11-26T05:38:34.975Z,0.40
2018-11-26T05:41:09.123Z,0.30
2018-11-26T05:43:45.074Z,0.40
2018-11-26T05:46:22.658Z,0.40
2018-11-26T05:49:03.243Z,0.90
2018-11-26T05:51:37.955Z,0.37
2018-11-26T05:54:11.970Z,0.43
2018-11-26T05:56:46.093Z,0.60
2018-11-26T06:02:20.367Z,0.40
2018-11-26T06:04:54.305Z,0.40
2018-11-26T06:07:29.547Z,0.43
2018-11-26T06:10:04.260Z,0.50
2018-11-26T06:12:39.323Z,0.50
2018-11-26T06:15:13.505Z,0.37
2018-11-26T06:17:48.187Z,0.70
2018-11-26T06:20:32.145Z,0.50
2018-11-26T06:23:12.729Z,0.43
2018-11-26T06:25:46.861Z,0.37
2018-11-26T06:28:21.615Z,0.47
2018-11-26T06:30:55.491Z,0.30
2018-11-26T06:33:29.436Z,0.70
2018-11-26T06:36:04.413Z,0.40
2018-11-26T06:38:39.269Z,0.20
2018-11-26T06:41:13.628Z,0.20
2018-11-26T06:43:47.364Z,0.50
2018-11-26T06:46:21.064Z,0.30
2018-11-26T06:48:54.787Z,0.53
2018-11-26T06:51:28.735Z,0.67
2018-11-26T06:54:03.316Z,0.30
2018-11-26T06:56:37.719Z,0.50
2018-11-26T06:59:11.687Z,0.93
2018-11-26T07:01:45.513Z,0.30
2018-11-26T07:04:19.948Z,0.60
2018-11-26T07:06:55.499Z,0.50
2018-11-26T07:09:29.290Z,0.40
2018-11-26T07:12:02.965Z,0.30
2018-11-26T07:14:37.368Z,0.80
2018-11-26T07:17:11.328Z,0.70
2018-11-26T07:19:45.876Z,0.60
2018-11-26T07:22:19.626Z,0.50
2018-11-26T07:24:53.541Z,0.50
2018-11-26T07:27:28.210Z,2.40
2018-11-26T07:30:02.314Z,0.70
2018-11-26T07:32:36.837Z,0.60
2018-11-26T07:38:02.659Z,0.50
2018-11-26T07:40:36.688Z,0.37
2018-11-26T07:43:11.363Z,0.33
2018-11-26T07:45:46.477Z,0.50
2018-11-26T07:48:20.241Z,0.53
2018-11-26T07:50:54.079Z,0.50
2018-11-26T07:53:28.061Z,0.20
2018-11-26T07:56:02.049Z,0.33
2018-11-26T07:58:36.501Z,0.30
2018-11-26T08:01:10.398Z,0.40
2018-11-26T08:03:44.127Z,0.60
2018-11-26T08:06:18.134Z,0.43
2018-11-26T08:08:51.973Z,0.53
2018-11-26T08:11:26.233Z,0.40
2018-11-26T08:14:00.208Z,0.37
2018-11-26T08:16:33.873Z,0.47
2018-11-26T08:19:08.927Z,0.40
2018-11-26T08:21:42.705Z,0.30
2018-11-26T08:24:16.758Z,0.60
2018-11-26T08:26:50.827Z,0.53
2018-11-26T08:29:24.517Z,0.60
2018-11-26T08:31:59.291Z,0.40
2018-11-26T08:34:33.060Z,0.40
2018-11-26T08:37:12.318Z,0.50
2018-11-26T08:39:51.636Z,0.67
2018-11-26T08:42:27.096Z,0.60
2018-11-26T08:45:08.577Z,0.60
2018-11-26T08:47:46.640Z,0.37
2018-11-26T08:58:23.694Z,1.57
2018-11-26T09:01:06.137Z,0.33
2018-11-26T09:03:45.546Z,0.63
2018-11-26T09:06:19.541Z,0.53
2018-11-26T09:08:54.632Z,0.37
2018-11-26T09:11:29.915Z,0.40
2018-11-26T09:14:03.782Z,0.70
2018-11-26T09:16:38.396Z,0.50
2018-11-26T09:19:12.781Z,0.30
2018-11-26T09:21:47.163Z,0.40
2018-11-26T09:24:21.006Z,0.50
2018-11-26T09:26:54.809Z,0.30
2018-11-26T09:29:29.371Z,0.30
2018-11-26T09:32:03.238Z,0.30
2018-11-26T09:34:36.945Z,0.50
2018-11-26T09:37:10.979Z,0.50
2018-11-26T09:39:45.020Z,0.30
2018-11-26T09:42:19.226Z,0.50
2018-11-26T09:44:54.150Z,0.50
2018-11-26T09:47:28.065Z,0.40
2018-11-26T09:50:02.984Z,0.40
2018-11-26T09:52:37.612Z,0.57
2018-11-26T09:55:11.903Z,0.37
2018-11-26T09:57:46.147Z,0.70
2018-11-26T10:00:20.372Z,0.30
2018-11-26T10:02:54.147Z,0.30
2018-11-26T10:05:28.180Z,0.37
2018-11-26T10:08:03.281Z,0.33
2018-11-26T10:10:37.117Z,0.20
2018-11-26T10:13:11.066Z,0.20
2018-11-26T10:15:45.593Z,0.30
2018-11-26T10:18:20.119Z,0.50
2018-11-26T10:20:54.013Z,0.40
2018-11-26T10:23:27.920Z,0.60
2018-11-26T10:26:02.300Z,0.30
2018-11-26T10:28:46.978Z,0.30
2018-11-26T10:31:20.816Z,0.60
2018-11-26T10:33:55.382Z,0.70
2018-11-26T10:36:29.303Z,0.40
2018-11-26T10:39:03.231Z,0.60
2018-11-26T10:41:37.244Z,0.70
2018-11-26T10:44:11.456Z,0.70
2018-11-26T10:46:46.428Z,0.40
2018-11-26T10:49:20.288Z,1.37
2018-11-26T10:51:54.664Z,1.00
2018-11-26T10:54:28.749Z,0.70
2018-11-26T10:57:02.780Z,0.80
2018-11-26T10:59:37.304Z,0.90
2018-11-26T11:02:16.722Z,0.70
2018-11-26T11:04:50.936Z,0.40
2018-11-26T11:07:25.497Z,0.40
2018-11-26T11:09:59.381Z,0.33
2018-11-26T11:12:33.812Z,0.40
2018-11-26T11:15:08.867Z,0.73
2018-11-26T11:17:43.281Z,0.80
2018-11-26T11:20:17.711Z,0.30
2018-11-26T11:22:51.531Z,0.30
2018-11-26T11:25:25.541Z,0.40
2018-11-26T11:27:59.379Z,0.70
2018-11-26T11:30:33.284Z,0.60
2018-11-26T11:35:41.055Z,0.47
2018-11-26T11:38:14.964Z,0.50
2018-11-26T11:40:48.813Z,0.43
2018-11-26T11:43:22.765Z,0.77
2018-11-26T11:45:56.821Z,0.50
2018-11-26T11:48:30.703Z,0.77
2018-11-26T11:51:04.619Z,0.30
2018-11-26T11:53:39.541Z,0.53
2018-11-26T11:56:13.396Z,0.40
2018-11-26T11:58:48.602Z,0.50
2018-11-26T12:01:22.537Z,0.50
2018-11-26T12:03:56.341Z,0.30
2018-11-26T12:06:30.712Z,0.50
2018-11-26T12:09:06.501Z,0.60
2018-11-26T12:11:41.125Z,0.50
2018-11-26T12:14:14.964Z,0.50
2018-11-26T12:16:49.474Z,0.57
2018-11-26T12:19:24.071Z,0.50
2018-11-26T12:21:57.960Z,0.40
2018-11-26T12:24:31.842Z,0.60
2018-11-26T12:27:05.932Z,0.60
2018-11-26T12:29:40.434Z,0.50
2018-11-26T12:32:14.198Z,0.50
2018-11-26T12:34:48.840Z,0.40
2018-11-26T12:37:22.881Z,0.50
2018-11-26T12:39:57.424Z,0.77
2018-11-26T12:42:31.273Z,0.33
2018-11-26T12:45:08.314Z,0.37
2018-11-26T12:47:42.100Z,0.60
2018-11-26T12:50:16.292Z,0.33
2018-11-26T12:52:50.961Z,0.70
2018-11-26T12:55:25.603Z,0.40
2018-11-26T12:57:59.563Z,0.73
2018-11-26T13:00:33.428Z,0.53
2018-11-26T13:03:11.211Z,0.70
2018-11-26T13:05:45.173Z,0.50
2018-11-26T13:08:19.045Z,0.50
2018-11-26T13:10:52.705Z,0.70
2018-11-26T13:13:26.760Z,0.50
2018-11-26T13:16:00.475Z,0.57
2018-11-26T13:18:34.679Z,0.50
2018-11-26T13:21:09.176Z,0.60
2018-11-26T13:23:43.895Z,0.47
2018-11-26T13:26:18.396Z,0.40
2018-11-26T13:28:52.225Z,0.60
2018-11-26T13:31:26.012Z,0.73
2018-11-26T13:34:00.999Z,0.70
2018-11-26T13:36:36.045Z,0.40
2018-11-26T13:39:10.018Z,0.70
2018-11-26T13:41:44.000Z,0.40
2018-11-26T13:44:18.444Z,0.60
2018-11-26T13:46:52.455Z,0.70
2018-11-26T13:49:26.426Z,0.80
2018-11-26T13:52:00.502Z,0.63
2018-11-26T13:54:34.669Z,0.57
2018-11-26T13:57:08.790Z,0.60
2018-11-26T13:59:42.711Z,0.90
2018-11-26T14:02:20.000Z,1.13
2018-11-26T14:04:58.956Z,0.70
2018-11-26T14:07:34.053Z,1.53
2018-11-26T14:10:09.962Z,0.70
2018-11-26T14:12:44.113Z,0.90
2018-11-26T14:15:18.485Z,0.73
2018-11-26T14:18:00.734Z,0.60
2018-11-26T14:20:35.816Z,0.80
2018-11-26T14:23:09.902Z,0.90
2018-11-26T14:25:43.880Z,1.10
2018-11-26T14:28:17.969Z,1.17
2018-11-26T14:30:52.800Z,0.70
2018-11-26T14:33:26.829Z,1.07
2018-11-26T14:36:00.754Z,0.80
2018-11-26T14:38:35.098Z,1.10
2018-11-26T14:41:08.985Z,0.80
2018-11-26T14:43:50.609Z,0.70
2018-11-26T14:46:24.656Z,0.80
2018-11-26T14:48:59.095Z,0.60
2018-11-26T14:51:33.250Z,0.90
2018-11-26T14:54:07.197Z,0.80
2018-11-26T14:56:41.268Z,0.70
2018-11-26T14:59:16.598Z,0.80
2018-11-26T15:01:50.652Z,0.90
2018-11-26T15:04:27.821Z,0.70
2018-11-26T15:07:02.583Z,0.90
2018-11-26T15:09:37.341Z,0.60
2018-11-26T15:12:11.850Z,0.90
2018-11-26T15:14:46.830Z,0.50
2018-11-26T15:17:20.773Z,0.50
2018-11-26T15:19:54.995Z,0.80
2018-11-26T15:22:29.088Z,0.80
2018-11-26T15:25:03.243Z,1.40
2018-11-26T15:27:40.656Z,0.90
2018-11-26T15:30:22.391Z,0.90
2018-11-26T15:32:56.437Z,0.90
2018-11-26T15:35:30.819Z,1.20
2018-11-26T15:38:36.845Z,0.90
2018-11-26T15:47:20.132Z,0.80
2018-11-26T15:49:54.995Z,1.00
2018-11-26T15:52:29.285Z,0.80
2018-11-26T15:55:04.910Z,0.77
2018-11-26T15:57:39.366Z,0.60
2018-11-26T16:00:28.141Z,0.70
2018-11-26T16:03:02.965Z,0.70
2018-11-26T16:05:38.911Z,0.90
2018-11-26T16:08:14.888Z,1.30
2018-11-26T16:10:49.362Z,0.97
2018-11-26T16:19:07.729Z,0.80
2018-11-26T16:21:42.798Z,0.87
2018-11-26T16:24:17.474Z,1.27
2018-11-26T16:29:38.803Z,1.60
2018-11-26T16:32:16.402Z,1.00
2018-11-26T16:40:48.051Z,0.80
2018-11-26T16:43:22.191Z,0.80
2018-11-26T16:45:56.635Z,1.00
2018-11-26T16:48:32.262Z,0.80
2018-11-26T16:51:07.046Z,1.00
2018-11-26T16:58:08.251Z,0.90
2018-11-26T17:02:34.826Z,0.97
2018-11-26T17:05:10.423Z,1.03
2018-11-26T17:08:01.829Z,1.10
2018-11-26T17:10:36.353Z,1.63
2018-11-26T17:13:13.004Z,0.93
2018-11-26T17:15:47.644Z,0.80
2018-11-26T17:18:22.278Z,0.90
2018-11-26T17:20:57.219Z,1.30
2018-11-26T17:23:31.632Z,1.40
2018-11-26T17:26:07.383Z,1.40
2018-11-26T17:28:41.998Z,1.30
2018-11-26T17:31:17.556Z,1.40
2018-11-26T17:33:52.287Z,1.43
2018-11-26T17:36:31.312Z,1.10
2018-11-26T17:39:09.153Z,1.27
2018-11-26T17:41:43.820Z,1.13
2018-11-26T17:44:18.881Z,1.50
2018-11-26T17:46:53.392Z,1.57
2018-11-26T17:49:33.625Z,1.60
2018-11-26T17:52:08.560Z,1.57
2018-11-26T17:54:49.767Z,1.40
2018-11-26T17:57:31.446Z,1.30
2018-11-26T18:00:09.856Z,1.00
2018-11-26T18:02:44.965Z,1.40
2018-11-26T18:05:21.771Z,1.03
2018-11-26T18:07:57.112Z,1.17
2018-11-26T18:10:31.799Z,1.20
2018-11-26T18:13:09.187Z,1.40
2018-11-26T18:16:54.290Z,1.60
2018-11-26T18:19:29.323Z,1.30
2018-11-26T18:22:10.581Z,0.90
2018-11-26T18:27:23.789Z,0.90
2018-11-26T18:30:01.806Z,0.90
2018-11-26T18:35:26.721Z,0.90
2018-11-26T18:38:07.080Z,1.00
2018-11-26T18:40:42.523Z,0.80
2018-11-26T18:43:17.135Z,0.80
2018-11-26T18:45:52.277Z,0.90
2018-11-26T18:48:27.508Z,0.90
2018-11-26T18:51:02.869Z,0.80
2018-11-26T18:53:50.783Z,1.07
2018-11-26T18:59:18.469Z,0.80
2018-11-26T19:04:45.118Z,1.07
2018-11-26T19:07:20.560Z,1.10
2018-11-26T19:18:25.193Z,0.90
2018-11-26T19:21:04.770Z,1.03
2018-11-26T19:23:52.819Z,0.90
2018-11-26T19:26:27.581Z,1.10
2018-11-26T19:32:07.146Z,1.17
2018-11-26T19:37:35.977Z,1.10
2018-11-26T19:40:15.392Z,1.10
2018-11-26T19:42:56.249Z,1.23
2018-11-26T19:45:31.171Z,1.63
2018-11-26T19:48:06.243Z,1.60
2018-11-26T19:50:44.679Z,1.00
2018-11-26T19:53:19.374Z,1.10
2018-11-26T19:55:54.000Z,0.90
2018-11-26T19:58:28.618Z,0.90
2018-11-26T20:01:04.575Z,0.97
2018-11-26T20:03:44.111Z,0.87
2018-11-26T20:06:42.420Z,0.93
2018-11-26T20:09:18.192Z,0.90
2018-11-26T20:11:52.895Z,1.03
2018-11-26T20:14:27.179Z,1.23
2018-11-26T20:17:25.628Z,0.80
2018-11-26T20:20:01.450Z,0.83
2018-11-26T20:22:42.776Z,1.20
2018-11-26T20:25:22.004Z,1.63
2018-11-26T20:31:01.755Z,1.00
2018-11-26T20:33:40.517Z,0.60
2018-11-26T20:36:21.239Z,1.00
2018-11-26T20:38:55.815Z,0.80
2018-11-26T20:41:29.882Z,0.80
2018-11-26T20:44:03.766Z,1.13
2018-11-26T20:46:38.381Z,1.13
2018-11-26T20:49:21.725Z,1.30
2018-11-26T20:51:56.669Z,0.80
2018-11-26T20:54:37.537Z,1.20
2018-11-26T20:58:03.527Z,1.30
2018-11-26T21:00:39.898Z,1.40
2018-11-26T21:03:14.383Z,1.10
2018-11-26T21:05:51.457Z,1.23
2018-11-26T21:11:05.883Z,1.33
2018-11-26T21:13:44.602Z,1.00
2018-11-26T21:16:20.808Z,1.07
2018-11-26T21:18:55.172Z,1.03
2018-11-26T21:21:29.408Z,1.00
2018-11-26T21:24:04.457Z,1.17
2018-11-26T21:29:20.941Z,3.15
2018-11-26T21:31:58.099Z,1.10
2018-11-26T21:34:37.345Z,1.17
2018-11-26T21:37:18.608Z,1.10
2018-11-26T21:39:53.043Z,1.27
2018-11-26T21:42:29.213Z,0.97
2018-11-26T21:45:03.743Z,1.00
2018-11-26T21:47:38.339Z,1.20
2018-11-26T21:50:13.061Z,1.00
2018-11-26T21:52:48.223Z,1.30
2018-11-26T21:55:22.420Z,1.00
2018-11-26T21:57:56.535Z,0.90
2018-11-26T22:00:31.321Z,1.20
2018-11-26T22:03:08.373Z,0.90
2018-11-26T22:05:43.260Z,1.20
2018-11-26T22:08:17.392Z,0.80
2018-11-26T22:10:51.489Z,1.10
2018-11-26T22:13:25.935Z,1.10
2018-11-26T22:16:00.404Z,0.93
2018-11-26T22:18:34.533Z,1.17
2018-11-26T22:21:08.892Z,0.90
2018-11-26T22:23:42.791Z,1.20
2018-11-26T22:26:17.976Z,0.97
2018-11-26T22:28:52.082Z,0.80
2018-11-26T22:31:26.430Z,0.90
2018-11-26T22:34:00.886Z,1.50
2018-11-26T22:36:34.965Z,1.50
2018-11-26T22:39:09.760Z,1.13
2018-11-26T22:41:43.987Z,1.13
2018-11-26T22:44:21.665Z,1.10
2018-11-26T22:46:56.087Z,0.97
2018-11-26T22:49:30.609Z,1.10
2018-11-26T22:52:15.970Z,0.53
2018-11-26T22:54:50.279Z,0.83
2018-11-26T22:57:25.374Z,0.90
2018-11-26T23:00:01.069Z,0.70
2018-11-26T23:02:43.385Z,0.70
2018-11-26T23:05:18.727Z,0.60
2018-11-26T23:07:59.883Z,0.60
2018-11-26T23:10:34.876Z,0.80
2018-11-26T23:13:10.552Z,0.63
2018-11-26T23:15:44.675Z,0.70
2018-11-26T23:18:20.657Z,0.70
2018-11-26T23:20:55.796Z,0.60
2018-11-26T23:23:31.726Z,0.50
2018-11-26T23:29:23.879Z,0.70
2018-11-26T23:31:59.657Z,0.70
2018-11-26T23:34:36.909Z,0.57
2018-11-26T23:37:11.261Z,0.57
2018-11-26T23:39:45.335Z,0.60
2018-11-26T23:42:19.722Z,0.80
2018-11-26T23:45:00.127Z,1.10
2018-11-26T23:47:35.630Z,1.30
2018-11-26T23:50:16.097Z,0.80
2018-11-26T23:52:51.580Z,0.67
2018-11-26T23:55:32.421Z,0.50
2018-11-26T23:58:07.152Z,0.67
